Monday, September 01, 2014
21:12 UTC
  |  Log In   |  Register Free
Airport Search:

Enid Woodring Regional Airport
(KWDG)

FAA data valid effective July 24, 2014 until September 18, 2014 (unless otherwise noted).

 
 
 
 
 
 
 
 
 
 
 
 
 
 

Current Aviation Weather for Enid Woodring Regional Airport (KWDG)

The most recent METAR observation for KWDG was updated at: 1950 UTC
METAR Summary (Translated METAR)
KWDG
011950Z 17020G25KT 10SM BKN060 OVC080 36/21 A2977
KEND
(6.6 nm SW from KWDG)
011958Z AUTO 16016G26KT 10SM FEW120 SCT180 35/23 A2979 RMK AO2 PK WND 19026/48 SLP072 T03480232 $
TAF Summary (Translated TAF)
KEND
(6.6 nm SW from KWDG)
2923/3024 15012KT 9999 SCT040 SCT090 BKN150 QNH2983INS BECMG 3003/3004 VRB06KT 9999 FEW060 QNH2990INS BECMG 3014/3015 13007KT 9999 FEW070 FEW200 QNH2987INS TX32/3021Z TN20/3011Z AMD 292356
  Airport Weather Conditions for KWDG

 Current Weather at WDG
93° F
Mostly Cloudy
South winds at 17.3 mph
WDG NOAA Radar

Pressure: 29.79 in
Humidity: 44%
Wind: from the South at 17.3 gusting to 26.5 MPH (15 gusting to 23 KT)
Dew Point: 68.0°F
Visibility: 10.00 mi


Airport Weather Forecast for KWDG

Translated METAR and TAF for KWDG
Translated METAR for KWDG (2106 UTC 01 September 2014)
found at http://aviationweather.gov/adds/metars/
 
METAR text: KWDG 012050Z 18020G27KT 10SM SCT055 OVC080 36/20 A2976
Conditions at: KWDG (ENID/WOODRING , OK, US) observed 2050 UTC 01 September 2014
Temperature: 36.0°C (97°F)
Dewpoint: 20.0°C (68°F) [RH = 39%]
Pressure (altimeter): 29.76 inches Hg (1007.9 mb)
Winds: from the S (180 degrees) at 23 MPH (20 knots; 10.4 m/s)
gusting to 31 MPH (27 knots; 14.0 m/s)
Visibility: 10 or more miles (16+ km)
Ceiling: 8000 feet AGL
Clouds: scattered clouds at 5500 feet AGL
overcast cloud deck at 8000 feet AGL
Weather: no significant weather observed at this time
Translated TAF for KWDG

There is no translated TAF available for this airport

Find All Airport Services Find A Hotel Find A Rental Car Find A Golf Course Find A Restaurant $100 Hamburger



FBO's on the Field
FBO Company Facility Photos Services Transportation Aviation Fuel Prices: Prices include tax
Catering Weather Repair Courtesy Rental Type 100LL JetA JetA+ MOGAS 8087
 
Enid Woodring Regional Airport

This FBO has not yet been rated
FS:Phillips66
Last Updated: Aug-05
Login to update fuel prices
SS:
Contact Enid Woodring Regional AirportMore FBO Information
 
Add another FBO Facility Photos Catering Weather Repair Courtesy Rental Type 100LL JetA JetA+ MOGAS 8087
Services Transportation Aviation Fuel Prices: Prices include tax


GlobalAir.com Airport Resource Center model-print
model-print
model-print
model-print